sensor_id;sensor_type;location;lat;lon;timestamp;temperature;humidity
16881;DHT22;8557;52.068;5.198;2022-08-19T00:00:30;19.60;99.90
16881;DHT22;8557;52.068;5.198;2022-08-19T00:02:57;19.60;99.90
16881;DHT22;8557;52.068;5.198;2022-08-19T00:05:24;19.50;99.90
16881;DHT22;8557;52.068;5.198;2022-08-19T00:07:51;19.50;99.90
16881;DHT22;8557;52.068;5.198;2022-08-19T00:10:18;19.50;99.90
16881;DHT22;8557;52.068;5.198;2022-08-19T00:12:46;19.50;99.90
16881;DHT22;8557;52.068;5.198;2022-08-19T00:15:18;19.40;99.90
16881;DHT22;8557;52.068;5.198;2022-08-19T00:17:45;19.40;99.90
16881;DHT22;8557;52.068;5.198;2022-08-19T00:20:20;19.40;99.90
16881;DHT22;8557;52.068;5.198;2022-08-19T00:22:47;19.40;99.90
16881;DHT22;8557;52.068;5.198;2022-08-19T00:25:14;19.40;99.90
16881;DHT22;8557;52.068;5.198;2022-08-19T00:27:41;19.40;99.90
16881;DHT22;8557;52.068;5.198;2022-08-19T00:30:09;19.40;99.90
16881;DHT22;8557;52.068;5.198;2022-08-19T00:32:38;19.30;99.90
16881;DHT22;8557;52.068;5.198;2022-08-19T00:35:06;19.30;99.90
16881;DHT22;8557;52.068;5.198;2022-08-19T00:37:33;19.40;99.90
16881;DHT22;8557;52.068;5.198;2022-08-19T00:40:01;19.30;99.90
16881;DHT22;8557;52.068;5.198;2022-08-19T00:42:29;19.30;99.90
16881;DHT22;8557;52.068;5.198;2022-08-19T00:44:56;19.30;99.90
16881;DHT22;8557;52.068;5.198;2022-08-19T00:47:22;19.30;99.90
16881;DHT22;8557;52.068;5.198;2022-08-19T00:49:55;19.20;99.90
16881;DHT22;8557;52.068;5.198;2022-08-19T00:52:25;19.20;99.90
16881;DHT22;8557;52.068;5.198;2022-08-19T00:54:55;19.20;99.90
16881;DHT22;8557;52.068;5.198;2022-08-19T00:57:26;19.20;99.90
16881;DHT22;8557;52.068;5.198;2022-08-19T00:59:56;19.20;99.90
16881;DHT22;8557;52.068;5.198;2022-08-19T01:02:24;19.20;99.90
16881;DHT22;8557;52.068;5.198;2022-08-19T01:04:53;19.20;99.90
16881;DHT22;8557;52.068;5.198;2022-08-19T01:07:20;19.20;99.90
16881;DHT22;8557;52.068;5.198;2022-08-19T01:09:47;19.20;99.90
16881;DHT22;8557;52.068;5.198;2022-08-19T01:12:14;19.20;99.90
16881;DHT22;8557;52.068;5.198;2022-08-19T01:14:41;19.20;99.90
16881;DHT22;8557;52.068;5.198;2022-08-19T01:17:09;19.20;99.90
16881;DHT22;8557;52.068;5.198;2022-08-19T01:19:39;19.10;99.90
16881;DHT22;8557;52.068;5.198;2022-08-19T01:22:12;19.20;99.90
16881;DHT22;8557;52.068;5.198;2022-08-19T01:24:42;19.10;99.90
16881;DHT22;8557;52.068;5.198;2022-08-19T01:27:09;19.10;99.90
16881;DHT22;8557;52.068;5.198;2022-08-19T01:29:38;19.10;99.90
16881;DHT22;8557;52.068;5.198;2022-08-19T01:32:07;19.10;99.90
16881;DHT22;8557;52.068;5.198;2022-08-19T01:34:34;19.10;99.90
16881;DHT22;8557;52.068;5.198;2022-08-19T01:37:06;19.10;99.90
16881;DHT22;8557;52.068;5.198;2022-08-19T01:39:36;19.00;99.90
16881;DHT22;8557;52.068;5.198;2022-08-19T01:42:05;19.00;99.90
16881;DHT22;8557;52.068;5.198;2022-08-19T01:44:34;19.00;99.90
16881;DHT22;8557;52.068;5.198;2022-08-19T01:47:02;19.00;99.90
16881;DHT22;8557;52.068;5.198;2022-08-19T01:49:29;19.00;99.90
16881;DHT22;8557;52.068;5.198;2022-08-19T01:51:56;18.90;99.90
16881;DHT22;8557;52.068;5.198;2022-08-19T01:54:24;18.90;99.90
16881;DHT22;8557;52.068;5.198;2022-08-19T01:56:51;18.90;99.90
16881;DHT22;8557;52.068;5.198;2022-08-19T01:59:21;18.90;99.90
16881;DHT22;8557;52.068;5.198;2022-08-19T02:01:49;18.80;99.90
16881;DHT22;8557;52.068;5.198;2022-08-19T02:04:15;18.80;99.90
16881;DHT22;8557;52.068;5.198;2022-08-19T02:06:42;18.80;99.90
16881;DHT22;8557;52.068;5.198;2022-08-19T02:09:10;18.80;99.90
16881;DHT22;8557;52.068;5.198;2022-08-19T02:11:37;18.80;99.90
16881;DHT22;8557;52.068;5.198;2022-08-19T02:14:06;18.80;99.90
16881;DHT22;8557;52.068;5.198;2022-08-19T02:16:35;18.80;99.90
16881;DHT22;8557;52.068;5.198;2022-08-19T02:19:03;18.80;99.90
16881;DHT22;8557;52.068;5.198;2022-08-19T02:21:30;18.80;99.90
16881;DHT22;8557;52.068;5.198;2022-08-19T02:23:58;18.70;99.90
16881;DHT22;8557;52.068;5.198;2022-08-19T02:26:25;18.70;99.90
16881;DHT22;8557;52.068;5.198;2022-08-19T02:28:53;18.70;99.90
16881;DHT22;8557;52.068;5.198;2022-08-19T02:31:22;18.70;99.90
16881;DHT22;8557;52.068;5.198;2022-08-19T02:33:50;18.70;99.90
16881;DHT22;8557;52.068;5.198;2022-08-19T02:36:18;18.70;99.90
16881;DHT22;8557;52.068;5.198;2022-08-19T02:38:45;18.60;99.90
16881;DHT22;8557;52.068;5.198;2022-08-19T02:41:13;18.60;99.90
16881;DHT22;8557;52.068;5.198;2022-08-19T02:43:40;18.60;99.90
16881;DHT22;8557;52.068;5.198;2022-08-19T02:46:15;18.60;99.90
16881;DHT22;8557;52.068;5.198;2022-08-19T02:48:43;18.50;99.90
16881;DHT22;8557;52.068;5.198;2022-08-19T02:51:17;18.50;99.90
16881;DHT22;8557;52.068;5.198;2022-08-19T02:53:44;18.50;99.90
16881;DHT22;8557;52.068;5.198;2022-08-19T02:56:11;18.50;99.90
16881;DHT22;8557;52.068;5.198;2022-08-19T02:58:38;18.60;99.90
16881;DHT22;8557;52.068;5.198;2022-08-19T03:01:05;18.50;99.90
16881;DHT22;8557;52.068;5.198;2022-08-19T03:03:32;18.50;99.90
16881;DHT22;8557;52.068;5.198;2022-08-19T03:06:11;18.50;99.90
16881;DHT22;8557;52.068;5.198;2022-08-19T03:08:42;18.50;99.90
16881;DHT22;8557;52.068;5.198;2022-08-19T03:11:13;18.50;99.90
16881;DHT22;8557;52.068;5.198;2022-08-19T03:13:40;18.50;99.90
16881;DHT22;8557;52.068;5.198;2022-08-19T03:16:08;18.50;99.90
16881;DHT22;8557;52.068;5.198;2022-08-19T03:18:35;18.40;99.90
16881;DHT22;8557;52.068;5.198;2022-08-19T03:21:03;18.40;99.90
16881;DHT22;8557;52.068;5.198;2022-08-19T03:23:30;18.50;99.90
16881;DHT22;8557;52.068;5.198;2022-08-19T03:25:58;18.40;99.90
16881;DHT22;8557;52.068;5.198;2022-08-19T03:28:25;18.50;99.90
16881;DHT22;8557;52.068;5.198;2022-08-19T03:30:58;18.40;99.90
16881;DHT22;8557;52.068;5.198;2022-08-19T03:33:27;18.40;99.90
16881;DHT22;8557;52.068;5.198;2022-08-19T03:36:01;18.30;99.90
16881;DHT22;8557;52.068;5.198;2022-08-19T03:38:28;18.30;99.90
16881;DHT22;8557;52.068;5.198;2022-08-19T03:40:55;18.30;99.90
16881;DHT22;8557;52.068;5.198;2022-08-19T03:43:23;18.30;99.90
16881;DHT22;8557;52.068;5.198;2022-08-19T03:45:59;18.30;99.90
16881;DHT22;8557;52.068;5.198;2022-08-19T03:48:28;18.30;99.90
16881;DHT22;8557;52.068;5.198;2022-08-19T03:50:56;18.30;99.90
16881;DHT22;8557;52.068;5.198;2022-08-19T03:53:24;18.30;99.90
16881;DHT22;8557;52.068;5.198;2022-08-19T03:55:52;18.30;99.90
16881;DHT22;8557;52.068;5.198;2022-08-19T03:58:19;18.30;99.90
16881;DHT22;8557;52.068;5.198;2022-08-19T04:00:47;18.30;99.90
16881;DHT22;8557;52.068;5.198;2022-08-19T04:03:14;18.30;99.90
16881;DHT22;8557;52.068;5.198;2022-08-19T04:05:41;18.20;99.90
16881;DHT22;8557;52.068;5.198;2022-08-19T04:08:08;18.20;99.90
16881;DHT22;8557;52.068;5.198;2022-08-19T04:10:36;18.20;99.90
16881;DHT22;8557;52.068;5.198;2022-08-19T04:13:03;18.20;99.90
16881;DHT22;8557;52.068;5.198;2022-08-19T04:15:30;18.20;99.90
16881;DHT22;8557;52.068;5.198;2022-08-19T04:18:02;18.10;99.90
16881;DHT22;8557;52.068;5.198;2022-08-19T04:20:31;18.10;99.90
16881;DHT22;8557;52.068;5.198;2022-08-19T04:22:58;18.10;99.90
16881;DHT22;8557;52.068;5.198;2022-08-19T04:25:25;18.10;99.90
16881;DHT22;8557;52.068;5.198;2022-08-19T04:27:51;18.10;99.90
16881;DHT22;8557;52.068;5.198;2022-08-19T04:30:18;18.10;99.90
16881;DHT22;8557;52.068;5.198;2022-08-19T04:32:47;18.10;99.90
16881;DHT22;8557;52.068;5.198;2022-08-19T04:35:16;18.20;99.90
16881;DHT22;8557;52.068;5.198;2022-08-19T04:37:43;18.10;99.90
16881;DHT22;8557;52.068;5.198;2022-08-19T04:40:11;18.20;99.90
16881;DHT22;8557;52.068;5.198;2022-08-19T04:42:55;18.10;99.90
16881;DHT22;8557;52.068;5.198;2022-08-19T04:45:22;18.10;99.90
16881;DHT22;8557;52.068;5.198;2022-08-19T04:47:48;18.10;99.90
16881;DHT22;8557;52.068;5.198;2022-08-19T04:50:17;18.10;99.90
16881;DHT22;8557;52.068;5.198;2022-08-19T04:52:44;18.10;99.90
16881;DHT22;8557;52.068;5.198;2022-08-19T04:55:11;18.00;99.90
16881;DHT22;8557;52.068;5.198;2022-08-19T04:57:37;18.00;99.90
16881;DHT22;8557;52.068;5.198;2022-08-19T05:00:06;18.00;99.90
16881;DHT22;8557;52.068;5.198;2022-08-19T05:02:33;17.90;99.90
16881;DHT22;8557;52.068;5.198;2022-08-19T05:05:00;17.90;99.90
16881;DHT22;8557;52.068;5.198;2022-08-19T05:07:28;17.90;99.90
16881;DHT22;8557;52.068;5.198;2022-08-19T05:09:56;18.00;99.90
16881;DHT22;8557;52.068;5.198;2022-08-19T05:12:23;18.00;99.90
16881;DHT22;8557;52.068;5.198;2022-08-19T05:14:50;18.00;99.90
16881;DHT22;8557;52.068;5.198;2022-08-19T05:17:17;18.10;99.90
16881;DHT22;8557;52.068;5.198;2022-08-19T05:19:44;18.10;99.90
16881;DHT22;8557;52.068;5.198;2022-08-19T05:22:29;18.10;99.90
16881;DHT22;8557;52.068;5.198;2022-08-19T05:25:03;18.20;99.90
16881;DHT22;8557;52.068;5.198;2022-08-19T05:27:30;18.20;99.90
16881;DHT22;8557;52.068;5.198;2022-08-19T05:29:57;18.20;99.90
16881;DHT22;8557;52.068;5.198;2022-08-19T05:32:25;18.20;99.90
16881;DHT22;8557;52.068;5.198;2022-08-19T05:34:52;18.20;99.90
16881;DHT22;8557;52.068;5.198;2022-08-19T05:37:18;18.30;99.90
16881;DHT22;8557;52.068;5.198;2022-08-19T05:39:47;18.30;99.90
16881;DHT22;8557;52.068;5.198;2022-08-19T05:42:14;18.30;99.90
16881;DHT22;8557;52.068;5.198;2022-08-19T05:44:43;18.40;99.90
16881;DHT22;8557;52.068;5.198;2022-08-19T05:47:11;18.50;99.90
16881;DHT22;8557;52.068;5.198;2022-08-19T05:49:38;18.50;99.90
16881;DHT22;8557;52.068;5.198;2022-08-19T05:52:07;18.60;99.90
16881;DHT22;8557;52.068;5.198;2022-08-19T05:54:34;18.60;99.90
16881;DHT22;8557;52.068;5.198;2022-08-19T05:57:04;18.70;99.90
16881;DHT22;8557;52.068;5.198;2022-08-19T05:59:31;18.70;99.90
16881;DHT22;8557;52.068;5.198;2022-08-19T06:02:01;18.80;99.90
16881;DHT22;8557;52.068;5.198;2022-08-19T06:04:28;18.90;99.90
16881;DHT22;8557;52.068;5.198;2022-08-19T06:06:55;19.00;99.90
16881;DHT22;8557;52.068;5.198;2022-08-19T06:09:23;19.10;99.90
16881;DHT22;8557;52.068;5.198;2022-08-19T06:11:51;19.20;99.90
16881;DHT22;8557;52.068;5.198;2022-08-19T06:14:23;19.30;99.90
16881;DHT22;8557;52.068;5.198;2022-08-19T06:16:50;19.30;99.90
16881;DHT22;8557;52.068;5.198;2022-08-19T06:19:20;19.40;99.90
16881;DHT22;8557;52.068;5.198;2022-08-19T06:21:48;19.40;99.90
16881;DHT22;8557;52.068;5.198;2022-08-19T06:24:18;19.50;99.90
16881;DHT22;8557;52.068;5.198;2022-08-19T06:26:47;19.60;99.90
16881;DHT22;8557;52.068;5.198;2022-08-19T06:29:15;19.60;99.90
16881;DHT22;8557;52.068;5.198;2022-08-19T06:31:49;19.70;99.90
16881;DHT22;8557;52.068;5.198;2022-08-19T06:34:17;19.70;99.90
16881;DHT22;8557;52.068;5.198;2022-08-19T06:36:46;19.70;99.90
16881;DHT22;8557;52.068;5.198;2022-08-19T06:39:18;19.80;99.90
16881;DHT22;8557;52.068;5.198;2022-08-19T06:41:47;19.80;99.90
16881;DHT22;8557;52.068;5.198;2022-08-19T06:44:15;19.90;99.90
16881;DHT22;8557;52.068;5.198;2022-08-19T06:46:44;19.90;99.90
16881;DHT22;8557;52.068;5.198;2022-08-19T06:49:10;19.90;99.90
16881;DHT22;8557;52.068;5.198;2022-08-19T06:51:40;20.00;99.90
16881;DHT22;8557;52.068;5.198;2022-08-19T06:54:08;20.00;99.90
16881;DHT22;8557;52.068;5.198;2022-08-19T06:56:35;20.10;99.90
16881;DHT22;8557;52.068;5.198;2022-08-19T06:59:04;20.20;99.90
16881;DHT22;8557;52.068;5.198;2022-08-19T07:01:34;20.20;99.90
16881;DHT22;8557;52.068;5.198;2022-08-19T07:04:05;20.20;99.90
16881;DHT22;8557;52.068;5.198;2022-08-19T07:06:32;20.30;99.90
16881;DHT22;8557;52.068;5.198;2022-08-19T07:08:59;20.30;99.90
16881;DHT22;8557;52.068;5.198;2022-08-19T07:11:26;20.30;99.90
16881;DHT22;8557;52.068;5.198;2022-08-19T07:13:53;20.30;99.90
16881;DHT22;8557;52.068;5.198;2022-08-19T07:16:20;20.40;99.90
16881;DHT22;8557;52.068;5.198;2022-08-19T07:18:47;20.40;99.90
16881;DHT22;8557;52.068;5.198;2022-08-19T07:21:18;20.50;99.90
16881;DHT22;8557;52.068;5.198;2022-08-19T07:23:45;20.50;99.90
16881;DHT22;8557;52.068;5.198;2022-08-19T07:26:15;20.60;99.90
16881;DHT22;8557;52.068;5.198;2022-08-19T07:28:42;20.60;99.90
16881;DHT22;8557;52.068;5.198;2022-08-19T07:31:11;20.60;99.90
16881;DHT22;8557;52.068;5.198;2022-08-19T07:33:39;20.70;99.90
16881;DHT22;8557;52.068;5.198;2022-08-19T07:36:07;20.80;99.90
16881;DHT22;8557;52.068;5.198;2022-08-19T07:38:40;20.80;99.90
16881;DHT22;8557;52.068;5.198;2022-08-19T07:41:09;20.90;99.90
16881;DHT22;8557;52.068;5.198;2022-08-19T07:43:36;21.00;99.90
16881;DHT22;8557;52.068;5.198;2022-08-19T07:46:03;21.10;99.90
16881;DHT22;8557;52.068;5.198;2022-08-19T07:48:30;21.00;99.90
16881;DHT22;8557;52.068;5.198;2022-08-19T07:51:00;21.50;99.90
16881;DHT22;8557;52.068;5.198;2022-08-19T07:53:29;21.70;99.90
16881;DHT22;8557;52.068;5.198;2022-08-19T07:55:58;21.90;99.90
16881;DHT22;8557;52.068;5.198;2022-08-19T07:58:30;22.10;99.90
16881;DHT22;8557;52.068;5.198;2022-08-19T08:00:59;22.00;99.90
16881;DHT22;8557;52.068;5.198;2022-08-19T08:03:28;22.20;99.90
16881;DHT22;8557;52.068;5.198;2022-08-19T08:06:10;22.30;99.90
16881;DHT22;8557;52.068;5.198;2022-08-19T08:08:54;22.50;99.90
16881;DHT22;8557;52.068;5.198;2022-08-19T08:11:47;22.50;99.90
16881;DHT22;8557;52.068;5.198;2022-08-19T08:14:16;22.30;99.90
16881;DHT22;8557;52.068;5.198;2022-08-19T08:16:44;22.30;99.90
16881;DHT22;8557;52.068;5.198;2022-08-19T08:19:12;22.20;99.90
16881;DHT22;8557;52.068;5.198;2022-08-19T08:21:40;22.10;99.90
16881;DHT22;8557;52.068;5.198;2022-08-19T08:24:07;22.00;99.90
16881;DHT22;8557;52.068;5.198;2022-08-19T08:26:34;21.70;99.90
16881;DHT22;8557;52.068;5.198;2022-08-19T08:29:02;21.60;99.90
16881;DHT22;8557;52.068;5.198;2022-08-19T08:31:29;21.70;99.90
16881;DHT22;8557;52.068;5.198;2022-08-19T08:33:56;21.90;99.90
16881;DHT22;8557;52.068;5.198;2022-08-19T08:36:22;22.30;99.90
16881;DHT22;8557;52.068;5.198;2022-08-19T08:38:51;22.80;99.90
16881;DHT22;8557;52.068;5.198;2022-08-19T08:41:24;23.20;99.90
16881;DHT22;8557;52.068;5.198;2022-08-19T08:43:54;23.20;99.90
16881;DHT22;8557;52.068;5.198;2022-08-19T08:46:26;23.30;99.90
16881;DHT22;8557;52.068;5.198;2022-08-19T08:49:00;23.20;99.90
16881;DHT22;8557;52.068;5.198;2022-08-19T08:51:34;22.90;99.90
16881;DHT22;8557;52.068;5.198;2022-08-19T08:54:02;22.90;99.90
16881;DHT22;8557;52.068;5.198;2022-08-19T08:56:32;23.00;99.90
16881;DHT22;8557;52.068;5.198;2022-08-19T08:59:02;23.30;99.90
16881;DHT22;8557;52.068;5.198;2022-08-19T09:01:34;23.30;99.90
16881;DHT22;8557;52.068;5.198;2022-08-19T09:04:03;23.60;99.90
16881;DHT22;8557;52.068;5.198;2022-08-19T09:06:38;23.70;99.90
16881;DHT22;8557;52.068;5.198;2022-08-19T09:09:13;23.60;99.90
16881;DHT22;8557;52.068;5.198;2022-08-19T09:11:50;23.70;99.90
16881;DHT22;8557;52.068;5.198;2022-08-19T09:14:32;23.90;99.90
16881;DHT22;8557;52.068;5.198;2022-08-19T09:17:03;24.00;99.90
16881;DHT22;8557;52.068;5.198;2022-08-19T09:19:34;24.00;99.90
16881;DHT22;8557;52.068;5.198;2022-08-19T09:22:01;24.20;99.90
16881;DHT22;8557;52.068;5.198;2022-08-19T09:24:27;24.10;99.90
16881;DHT22;8557;52.068;5.198;2022-08-19T09:26:54;24.00;99.90
16881;DHT22;8557;52.068;5.198;2022-08-19T09:29:21;24.00;99.90
16881;DHT22;8557;52.068;5.198;2022-08-19T09:31:48;24.30;99.90
16881;DHT22;8557;52.068;5.198;2022-08-19T09:34:16;24.10;99.90
16881;DHT22;8557;52.068;5.198;2022-08-19T09:36:45;24.50;99.90
16881;DHT22;8557;52.068;5.198;2022-08-19T09:39:11;24.60;99.90
16881;DHT22;8557;52.068;5.198;2022-08-19T09:41:38;24.50;99.90
16881;DHT22;8557;52.068;5.198;2022-08-19T09:44:05;24.30;99.90
16881;DHT22;8557;52.068;5.198;2022-08-19T09:46:32;23.90;99.90
16881;DHT22;8557;52.068;5.198;2022-08-19T09:48:59;24.30;99.90
16881;DHT22;8557;52.068;5.198;2022-08-19T09:51:27;24.60;99.90
16881;DHT22;8557;52.068;5.198;2022-08-19T09:53:58;24.70;99.90
16881;DHT22;8557;52.068;5.198;2022-08-19T09:56:25;24.70;99.90
16881;DHT22;8557;52.068;5.198;2022-08-19T09:58:52;24.70;99.90
16881;DHT22;8557;52.068;5.198;2022-08-19T10:01:20;24.80;99.90
16881;DHT22;8557;52.068;5.198;2022-08-19T10:03:48;24.90;99.90
16881;DHT22;8557;52.068;5.198;2022-08-19T10:06:16;24.90;99.90
16881;DHT22;8557;52.068;5.198;2022-08-19T10:08:45;24.70;99.90
16881;DHT22;8557;52.068;5.198;2022-08-19T10:11:13;24.90;99.90
16881;DHT22;8557;52.068;5.198;2022-08-19T10:13:42;24.60;99.90
16881;DHT22;8557;52.068;5.198;2022-08-19T10:16:11;24.50;99.90
16881;DHT22;8557;52.068;5.198;2022-08-19T10:18:39;24.40;99.90
16881;DHT22;8557;52.068;5.198;2022-08-19T10:21:11;24.30;99.90
16881;DHT22;8557;52.068;5.198;2022-08-19T10:23:40;24.50;99.90
16881;DHT22;8557;52.068;5.198;2022-08-19T10:26:12;24.60;99.90
16881;DHT22;8557;52.068;5.198;2022-08-19T10:28:39;24.10;99.90
16881;DHT22;8557;52.068;5.198;2022-08-19T10:31:09;24.30;99.90
16881;DHT22;8557;52.068;5.198;2022-08-19T10:33:37;24.60;99.90
16881;DHT22;8557;52.068;5.198;2022-08-19T10:36:06;25.10;99.90
16881;DHT22;8557;52.068;5.198;2022-08-19T10:38:34;25.40;99.90
16881;DHT22;8557;52.068;5.198;2022-08-19T10:41:07;24.90;99.90
16881;DHT22;8557;52.068;5.198;2022-08-19T10:43:35;25.10;99.90
16881;DHT22;8557;52.068;5.198;2022-08-19T10:46:04;25.20;99.90
16881;DHT22;8557;52.068;5.198;2022-08-19T10:48:31;25.00;99.90
16881;DHT22;8557;52.068;5.198;2022-08-19T10:50:58;24.90;99.90
16881;DHT22;8557;52.068;5.198;2022-08-19T10:53:42;25.30;99.90
16881;DHT22;8557;52.068;5.198;2022-08-19T10:56:09;26.00;99.90
16881;DHT22;8557;52.068;5.198;2022-08-19T10:58:55;25.60;99.90
16881;DHT22;8557;52.068;5.198;2022-08-19T11:01:23;25.90;99.90
16881;DHT22;8557;52.068;5.198;2022-08-19T11:03:50;26.10;97.90
16881;DHT22;8557;52.068;5.198;2022-08-19T11:06:18;26.10;96.30
16881;DHT22;8557;52.068;5.198;2022-08-19T11:08:45;26.90;84.60
16881;DHT22;8557;52.068;5.198;2022-08-19T11:11:12;27.00;70.30
16881;DHT22;8557;52.068;5.198;2022-08-19T11:13:40;26.60;86.70
16881;DHT22;8557;52.068;5.198;2022-08-19T11:16:11;26.90;71.80
16881;DHT22;8557;52.068;5.198;2022-08-19T11:18:41;27.00;71.30
16881;DHT22;8557;52.068;5.198;2022-08-19T11:21:11;26.90;67.50
16881;DHT22;8557;52.068;5.198;2022-08-19T11:23:39;26.90;56.80
16881;DHT22;8557;52.068;5.198;2022-08-19T11:26:06;27.10;51.90
16881;DHT22;8557;52.068;5.198;2022-08-19T11:28:33;26.70;63.60
16881;DHT22;8557;52.068;5.198;2022-08-19T11:31:00;26.30;77.00
16881;DHT22;8557;52.068;5.198;2022-08-19T11:33:30;26.50;66.30
16881;DHT22;8557;52.068;5.198;2022-08-19T11:35:58;26.20;85.70
16881;DHT22;8557;52.068;5.198;2022-08-19T11:38:26;26.00;93.90
16881;DHT22;8557;52.068;5.198;2022-08-19T11:40:57;25.90;87.90
16881;DHT22;8557;52.068;5.198;2022-08-19T11:43:24;25.70;96.70
16881;DHT22;8557;52.068;5.198;2022-08-19T11:45:52;24.90;99.90
16881;DHT22;8557;52.068;5.198;2022-08-19T11:48:19;24.70;99.90
16881;DHT22;8557;52.068;5.198;2022-08-19T11:50:48;24.50;99.90
16881;DHT22;8557;52.068;5.198;2022-08-19T11:53:16;24.50;99.90
16881;DHT22;8557;52.068;5.198;2022-08-19T11:55:44;24.30;99.90
16881;DHT22;8557;52.068;5.198;2022-08-19T11:58:11;24.40;99.90
16881;DHT22;8557;52.068;5.198;2022-08-19T12:00:38;24.40;99.90
16881;DHT22;8557;52.068;5.198;2022-08-19T12:03:05;24.20;99.90
16881;DHT22;8557;52.068;5.198;2022-08-19T12:05:32;24.30;99.90
16881;DHT22;8557;52.068;5.198;2022-08-19T12:08:00;24.70;99.90
16881;DHT22;8557;52.068;5.198;2022-08-19T12:10:27;25.20;99.90
16881;DHT22;8557;52.068;5.198;2022-08-19T12:12:53;25.20;99.90
16881;DHT22;8557;52.068;5.198;2022-08-19T12:15:20;25.30;99.90
16881;DHT22;8557;52.068;5.198;2022-08-19T12:17:47;25.50;99.90
16881;DHT22;8557;52.068;5.198;2022-08-19T12:20:14;25.80;99.90
16881;DHT22;8557;52.068;5.198;2022-08-19T12:22:42;25.80;99.90
16881;DHT22;8557;52.068;5.198;2022-08-19T12:25:11;26.30;99.90
16881;DHT22;8557;52.068;5.198;2022-08-19T12:27:38;26.50;99.90
16881;DHT22;8557;52.068;5.198;2022-08-19T12:30:07;26.60;76.70
16881;DHT22;8557;52.068;5.198;2022-08-19T12:32:35;26.90;65.70
16881;DHT22;8557;52.068;5.198;2022-08-19T12:35:02;26.70;59.20
16881;DHT22;8557;52.068;5.198;2022-08-19T12:37:29;27.30;48.00
16881;DHT22;8557;52.068;5.198;2022-08-19T12:39:57;27.90;51.40
16881;DHT22;8557;52.068;5.198;2022-08-19T12:42:26;28.40;12.00
16881;DHT22;8557;52.068;5.198;2022-08-19T12:44:53;28.40;15.70
16881;DHT22;8557;52.068;5.198;2022-08-19T12:47:20;27.50;12.10
16881;DHT22;8557;52.068;5.198;2022-08-19T12:49:47;28.00;30.30
16881;DHT22;8557;52.068;5.198;2022-08-19T12:52:14;28.40;1.00
16881;DHT22;8557;52.068;5.198;2022-08-19T12:54:42;28.00;10.80
16881;DHT22;8557;52.068;5.198;2022-08-19T12:57:10;27.70;10.10
16881;DHT22;8557;52.068;5.198;2022-08-19T12:59:38;27.20;22.10
16881;DHT22;8557;52.068;5.198;2022-08-19T13:02:07;26.90;42.40
16881;DHT22;8557;52.068;5.198;2022-08-19T13:04:35;26.30;56.60
16881;DHT22;8557;52.068;5.198;2022-08-19T13:07:06;25.70;74.70
16881;DHT22;8557;52.068;5.198;2022-08-19T13:09:33;25.20;99.70
16881;DHT22;8557;52.068;5.198;2022-08-19T13:12:01;24.80;99.90
16881;DHT22;8557;52.068;5.198;2022-08-19T13:14:29;24.50;99.90
16881;DHT22;8557;52.068;5.198;2022-08-19T13:16:58;24.50;99.90
16881;DHT22;8557;52.068;5.198;2022-08-19T13:19:24;24.50;99.90
16881;DHT22;8557;52.068;5.198;2022-08-19T13:21:52;24.50;99.90
16881;DHT22;8557;52.068;5.198;2022-08-19T13:24:20;24.60;99.90
16881;DHT22;8557;52.068;5.198;2022-08-19T13:26:47;24.70;99.90
16881;DHT22;8557;52.068;5.198;2022-08-19T13:29:14;24.70;99.90
16881;DHT22;8557;52.068;5.198;2022-08-19T13:32:00;24.30;99.90
16881;DHT22;8557;52.068;5.198;2022-08-19T13:34:44;24.20;99.90
16881;DHT22;8557;52.068;5.198;2022-08-19T13:37:12;24.10;99.90
16881;DHT22;8557;52.068;5.198;2022-08-19T13:39:39;23.70;99.90
16881;DHT22;8557;52.068;5.198;2022-08-19T13:42:06;23.50;99.90
16881;DHT22;8557;52.068;5.198;2022-08-19T13:44:34;23.30;99.90
16881;DHT22;8557;52.068;5.198;2022-08-19T13:47:03;23.40;99.90
16881;DHT22;8557;52.068;5.198;2022-08-19T13:49:34;23.20;99.90
16881;DHT22;8557;52.068;5.198;2022-08-19T13:52:02;23.20;99.90
16881;DHT22;8557;52.068;5.198;2022-08-19T13:54:28;23.20;99.90
16881;DHT22;8557;52.068;5.198;2022-08-19T13:56:55;23.20;99.90
16881;DHT22;8557;52.068;5.198;2022-08-19T13:59:22;23.50;99.90
16881;DHT22;8557;52.068;5.198;2022-08-19T14:01:49;23.60;99.90
16881;DHT22;8557;52.068;5.198;2022-08-19T14:04:17;23.60;99.90
16881;DHT22;8557;52.068;5.198;2022-08-19T14:06:43;23.70;99.90
16881;DHT22;8557;52.068;5.198;2022-08-19T14:09:10;23.60;99.90
16881;DHT22;8557;52.068;5.198;2022-08-19T14:11:37;23.40;99.90
16881;DHT22;8557;52.068;5.198;2022-08-19T14:14:04;23.40;99.90
16881;DHT22;8557;52.068;5.198;2022-08-19T14:16:31;23.60;99.90
16881;DHT22;8557;52.068;5.198;2022-08-19T14:18:57;23.50;99.90
16881;DHT22;8557;52.068;5.198;2022-08-19T14:21:26;23.50;99.90
16881;DHT22;8557;52.068;5.198;2022-08-19T14:23:53;23.50;99.90
16881;DHT22;8557;52.068;5.198;2022-08-19T14:26:21;23.40;99.90
16881;DHT22;8557;52.068;5.198;2022-08-19T14:28:48;23.70;99.90
16881;DHT22;8557;52.068;5.198;2022-08-19T14:31:17;24.00;99.90
16881;DHT22;8557;52.068;5.198;2022-08-19T14:33:45;24.60;99.90
16881;DHT22;8557;52.068;5.198;2022-08-19T14:36:12;25.30;99.90
16881;DHT22;8557;52.068;5.198;2022-08-19T14:38:41;26.60;99.90
16881;DHT22;8557;52.068;5.198;2022-08-19T14:41:12;28.70;96.30
16881;DHT22;8557;52.068;5.198;2022-08-19T14:43:42;28.20;86.70
16881;DHT22;8557;52.068;5.198;2022-08-19T14:46:12;27.00;94.40
16881;DHT22;8557;52.068;5.198;2022-08-19T14:48:39;26.60;99.90
16881;DHT22;8557;52.068;5.198;2022-08-19T14:51:06;26.50;99.90
16881;DHT22;8557;52.068;5.198;2022-08-19T14:53:33;26.10;99.90
16881;DHT22;8557;52.068;5.198;2022-08-19T14:56:06;26.00;99.90
16881;DHT22;8557;52.068;5.198;2022-08-19T14:58:33;25.20;99.90
16881;DHT22;8557;52.068;5.198;2022-08-19T15:01:00;25.30;99.90
16881;DHT22;8557;52.068;5.198;2022-08-19T15:03:29;25.50;99.90
16881;DHT22;8557;52.068;5.198;2022-08-19T15:05:57;25.20;99.90
16881;DHT22;8557;52.068;5.198;2022-08-19T15:08:24;25.50;99.90
16881;DHT22;8557;52.068;5.198;2022-08-19T15:10:51;26.00;99.90
16881;DHT22;8557;52.068;5.198;2022-08-19T15:13:20;28.40;94.50
16881;DHT22;8557;52.068;5.198;2022-08-19T15:15:47;30.40;17.00
16881;DHT22;8557;52.068;5.198;2022-08-19T15:18:14;30.20;1.00
16881;DHT22;8557;52.068;5.198;2022-08-19T15:20:42;32.00;1.00
16881;DHT22;8557;52.068;5.198;2022-08-19T15:23:10;32.60;1.00
16881;DHT22;8557;52.068;5.198;2022-08-19T15:25:37;32.30;1.00
16881;DHT22;8557;52.068;5.198;2022-08-19T15:28:04;31.90;1.00
16881;DHT22;8557;52.068;5.198;2022-08-19T15:30:32;31.10;1.00
16881;DHT22;8557;52.068;5.198;2022-08-19T15:32:59;30.00;1.00
16881;DHT22;8557;52.068;5.198;2022-08-19T15:35:28;29.40;1.00
16881;DHT22;8557;52.068;5.198;2022-08-19T15:37:56;28.60;28.80
16881;DHT22;8557;52.068;5.198;2022-08-19T15:40:25;28.00;28.60
16881;DHT22;8557;52.068;5.198;2022-08-19T15:42:53;27.20;59.10
16881;DHT22;8557;52.068;5.198;2022-08-19T15:45:20;26.30;90.30
16881;DHT22;8557;52.068;5.198;2022-08-19T15:47:49;26.10;99.90
16881;DHT22;8557;52.068;5.198;2022-08-19T15:50:18;26.50;99.90
16881;DHT22;8557;52.068;5.198;2022-08-19T15:52:48;26.70;99.90
16881;DHT22;8557;52.068;5.198;2022-08-19T15:55:15;27.00;99.90